sensor_id;sensor_type;location;lat;lon;timestamp;P1;durP1;ratioP1;P2;durP2;ratioP2
44139;SDS011;29803;51.048;4.686;2023-03-01T00:02:15;18.40;;;9.43;;
44139;SDS011;29803;51.048;4.686;2023-03-01T00:04:45;20.75;;;9.40;;
44139;SDS011;29803;51.048;4.686;2023-03-01T00:07:16;19.02;;;8.88;;
44139;SDS011;29803;51.048;4.686;2023-03-01T00:09:46;25.77;;;8.85;;
44139;SDS011;29803;51.048;4.686;2023-03-01T00:12:17;20.85;;;9.25;;
44139;SDS011;29803;51.048;4.686;2023-03-01T00:14:47;21.10;;;9.57;;
44139;SDS011;29803;51.048;4.686;2023-03-01T00:17:18;21.67;;;9.40;;
44139;SDS011;29803;51.048;4.686;2023-03-01T00:19:48;17.63;;;9.68;;
44139;SDS011;29803;51.048;4.686;2023-03-01T00:22:19;21.20;;;9.07;;
44139;SDS011;29803;51.048;4.686;2023-03-01T00:24:49;19.05;;;8.20;;
44139;SDS011;29803;51.048;4.686;2023-03-01T00:27:19;16.00;;;9.15;;
44139;SDS011;29803;51.048;4.686;2023-03-01T00:29:50;16.02;;;8.05;;
44139;SDS011;29803;51.048;4.686;2023-03-01T00:32:22;23.52;;;9.63;;
44139;SDS011;29803;51.048;4.686;2023-03-01T00:34:52;21.27;;;9.25;;
44139;SDS011;29803;51.048;4.686;2023-03-01T00:37:24;18.23;;;8.45;;
44139;SDS011;29803;51.048;4.686;2023-03-01T00:39:54;16.60;;;9.00;;
44139;SDS011;29803;51.048;4.686;2023-03-01T00:42:25;22.25;;;8.68;;
44139;SDS011;29803;51.048;4.686;2023-03-01T00:44:55;18.20;;;9.63;;
44139;SDS011;29803;51.048;4.686;2023-03-01T00:47:28;16.52;;;8.77;;
44139;SDS011;29803;51.048;4.686;2023-03-01T00:49:59;21.98;;;9.63;;
44139;SDS011;29803;51.048;4.686;2023-03-01T00:52:29;22.73;;;9.40;;
44139;SDS011;29803;51.048;4.686;2023-03-01T00:55:03;18.13;;;9.30;;
44139;SDS011;29803;51.048;4.686;2023-03-01T00:57:34;19.77;;;9.43;;
44139;SDS011;29803;51.048;4.686;2023-03-01T01:00:05;16.42;;;8.30;;
44139;SDS011;29803;51.048;4.686;2023-03-01T01:02:36;17.38;;;8.70;;
44139;SDS011;29803;51.048;4.686;2023-03-01T01:05:07;20.70;;;8.88;;
44139;SDS011;29803;51.048;4.686;2023-03-01T01:07:38;20.05;;;8.52;;
44139;SDS011;29803;51.048;4.686;2023-03-01T01:10:09;20.02;;;8.43;;
44139;SDS011;29803;51.048;4.686;2023-03-01T01:12:43;22.15;;;9.65;;
44139;SDS011;29803;51.048;4.686;2023-03-01T01:15:15;15.77;;;8.77;;
44139;SDS011;29803;51.048;4.686;2023-03-01T01:17:46;22.38;;;9.70;;
44139;SDS011;29803;51.048;4.686;2023-03-01T01:20:17;18.83;;;9.07;;
44139;SDS011;29803;51.048;4.686;2023-03-01T01:22:47;16.35;;;8.30;;
44139;SDS011;29803;51.048;4.686;2023-03-01T01:25:18;20.35;;;9.50;;
44139;SDS011;29803;51.048;4.686;2023-03-01T01:27:49;27.05;;;9.38;;
44139;SDS011;29803;51.048;4.686;2023-03-01T01:30:19;20.08;;;8.98;;
44139;SDS011;29803;51.048;4.686;2023-03-01T01:32:50;20.08;;;9.40;;
44139;SDS011;29803;51.048;4.686;2023-03-01T01:35:20;18.48;;;8.30;;
44139;SDS011;29803;51.048;4.686;2023-03-01T01:37:51;18.65;;;9.38;;
44139;SDS011;29803;51.048;4.686;2023-03-01T01:40:21;21.55;;;9.05;;
44139;SDS011;29803;51.048;4.686;2023-03-01T01:42:52;18.80;;;8.85;;
44139;SDS011;29803;51.048;4.686;2023-03-01T01:48:12;16.30;;;8.10;;
44139;SDS011;29803;51.048;4.686;2023-03-01T01:50:51;18.70;;;8.88;;
44139;SDS011;29803;51.048;4.686;2023-03-01T01:53:28;17.02;;;8.23;;
44139;SDS011;29803;51.048;4.686;2023-03-01T01:55:59;17.92;;;8.27;;
44139;SDS011;29803;51.048;4.686;2023-03-01T01:58:31;23.17;;;9.60;;
44139;SDS011;29803;51.048;4.686;2023-03-01T02:01:02;18.23;;;8.95;;
44139;SDS011;29803;51.048;4.686;2023-03-01T02:03:33;24.10;;;9.55;;
44139;SDS011;29803;51.048;4.686;2023-03-01T02:08:40;19.17;;;9.23;;
44139;SDS011;29803;51.048;4.686;2023-03-01T02:11:30;19.55;;;9.35;;
44139;SDS011;29803;51.048;4.686;2023-03-01T02:14:02;19.00;;;8.45;;
44139;SDS011;29803;51.048;4.686;2023-03-01T02:16:34;21.38;;;9.13;;
44139;SDS011;29803;51.048;4.686;2023-03-01T02:19:05;20.25;;;8.77;;
44139;SDS011;29803;51.048;4.686;2023-03-01T02:21:42;19.13;;;9.35;;
44139;SDS011;29803;51.048;4.686;2023-03-01T02:27:13;19.52;;;9.88;;
44139;SDS011;29803;51.048;4.686;2023-03-01T02:29:44;19.83;;;9.20;;
44139;SDS011;29803;51.048;4.686;2023-03-01T02:32:14;21.65;;;9.02;;
44139;SDS011;29803;51.048;4.686;2023-03-01T02:34:46;19.67;;;9.20;;
44139;SDS011;29803;51.048;4.686;2023-03-01T02:37:17;20.92;;;9.63;;
44139;SDS011;29803;51.048;4.686;2023-03-01T02:42:49;20.90;;;9.27;;
44139;SDS011;29803;51.048;4.686;2023-03-01T02:45:22;23.98;;;9.20;;
44139;SDS011;29803;51.048;4.686;2023-03-01T02:47:54;19.83;;;8.48;;
44139;SDS011;29803;51.048;4.686;2023-03-01T02:55:57;21.45;;;9.02;;
44139;SDS011;29803;51.048;4.686;2023-03-01T02:58:29;21.63;;;9.43;;
44139;SDS011;29803;51.048;4.686;2023-03-01T03:00:59;24.77;;;9.80;;
44139;SDS011;29803;51.048;4.686;2023-03-01T03:03:31;18.02;;;8.88;;
44139;SDS011;29803;51.048;4.686;2023-03-01T03:06:01;21.08;;;9.45;;
44139;SDS011;29803;51.048;4.686;2023-03-01T03:08:36;20.27;;;9.20;;
44139;SDS011;29803;51.048;4.686;2023-03-01T03:11:07;19.55;;;9.88;;
44139;SDS011;29803;51.048;4.686;2023-03-01T03:13:38;21.88;;;9.68;;
44139;SDS011;29803;51.048;4.686;2023-03-01T03:16:18;21.00;;;9.32;;
44139;SDS011;29803;51.048;4.686;2023-03-01T03:18:49;19.50;;;9.68;;
44139;SDS011;29803;51.048;4.686;2023-03-01T03:21:21;20.92;;;9.57;;
44139;SDS011;29803;51.048;4.686;2023-03-01T03:23:54;22.00;;;9.57;;
44139;SDS011;29803;51.048;4.686;2023-03-01T03:26:28;24.17;;;10.55;;
44139;SDS011;29803;51.048;4.686;2023-03-01T03:28:59;22.25;;;10.20;;
44139;SDS011;29803;51.048;4.686;2023-03-01T03:31:30;21.13;;;10.05;;
44139;SDS011;29803;51.048;4.686;2023-03-01T03:34:01;21.75;;;10.25;;
44139;SDS011;29803;51.048;4.686;2023-03-01T03:36:31;23.67;;;10.13;;
44139;SDS011;29803;51.048;4.686;2023-03-01T03:39:02;22.55;;;10.25;;
44139;SDS011;29803;51.048;4.686;2023-03-01T03:41:34;19.80;;;10.02;;
44139;SDS011;29803;51.048;4.686;2023-03-01T03:44:04;21.70;;;10.02;;
44139;SDS011;29803;51.048;4.686;2023-03-01T03:46:35;19.63;;;9.65;;
44139;SDS011;29803;51.048;4.686;2023-03-01T03:49:05;22.02;;;9.20;;
44139;SDS011;29803;51.048;4.686;2023-03-01T03:51:36;20.08;;;9.80;;
44139;SDS011;29803;51.048;4.686;2023-03-01T03:54:06;22.27;;;9.60;;
44139;SDS011;29803;51.048;4.686;2023-03-01T03:56:37;20.65;;;9.95;;
44139;SDS011;29803;51.048;4.686;2023-03-01T03:59:07;20.13;;;9.23;;
44139;SDS011;29803;51.048;4.686;2023-03-01T04:01:39;20.85;;;9.98;;
44139;SDS011;29803;51.048;4.686;2023-03-01T04:04:10;21.27;;;9.80;;
44139;SDS011;29803;51.048;4.686;2023-03-01T04:06:40;22.30;;;10.30;;
44139;SDS011;29803;51.048;4.686;2023-03-01T04:09:11;19.98;;;9.20;;
44139;SDS011;29803;51.048;4.686;2023-03-01T04:11:41;22.10;;;10.35;;
44139;SDS011;29803;51.048;4.686;2023-03-01T04:14:11;23.65;;;10.57;;
44139;SDS011;29803;51.048;4.686;2023-03-01T04:16:42;21.63;;;9.60;;
44139;SDS011;29803;51.048;4.686;2023-03-01T04:19:12;21.17;;;9.27;;
44139;SDS011;29803;51.048;4.686;2023-03-01T04:21:45;22.42;;;9.60;;
44139;SDS011;29803;51.048;4.686;2023-03-01T04:24:15;23.05;;;9.88;;
44139;SDS011;29803;51.048;4.686;2023-03-01T04:26:46;22.13;;;10.38;;
44139;SDS011;29803;51.048;4.686;2023-03-01T04:29:17;20.08;;;9.98;;
44139;SDS011;29803;51.048;4.686;2023-03-01T04:31:47;20.45;;;9.60;;
44139;SDS011;29803;51.048;4.686;2023-03-01T04:34:19;19.35;;;8.90;;
44139;SDS011;29803;51.048;4.686;2023-03-01T04:36:49;20.50;;;9.35;;
44139;SDS011;29803;51.048;4.686;2023-03-01T04:39:20;24.70;;;10.48;;
44139;SDS011;29803;51.048;4.686;2023-03-01T04:41:50;17.27;;;9.55;;
44139;SDS011;29803;51.048;4.686;2023-03-01T04:44:21;22.38;;;9.68;;
44139;SDS011;29803;51.048;4.686;2023-03-01T04:46:51;25.42;;;9.88;;
44139;SDS011;29803;51.048;4.686;2023-03-01T04:49:22;22.23;;;10.82;;
44139;SDS011;29803;51.048;4.686;2023-03-01T04:51:52;21.90;;;9.18;;
44139;SDS011;29803;51.048;4.686;2023-03-01T04:54:23;23.55;;;10.02;;
44139;SDS011;29803;51.048;4.686;2023-03-01T04:56:54;19.65;;;9.52;;
44139;SDS011;29803;51.048;4.686;2023-03-01T04:59:24;23.67;;;10.75;;
44139;SDS011;29803;51.048;4.686;2023-03-01T05:01:55;22.70;;;9.52;;
44139;SDS011;29803;51.048;4.686;2023-03-01T05:04:26;21.42;;;9.73;;
44139;SDS011;29803;51.048;4.686;2023-03-01T05:06:56;18.27;;;9.32;;
44139;SDS011;29803;51.048;4.686;2023-03-01T05:09:28;19.02;;;8.85;;
44139;SDS011;29803;51.048;4.686;2023-03-01T05:11:59;27.73;;;9.35;;
44139;SDS011;29803;51.048;4.686;2023-03-01T05:14:29;20.50;;;9.27;;
44139;SDS011;29803;51.048;4.686;2023-03-01T05:17:03;19.92;;;9.45;;
44139;SDS011;29803;51.048;4.686;2023-03-01T05:19:34;21.38;;;9.60;;
44139;SDS011;29803;51.048;4.686;2023-03-01T05:22:04;20.30;;;9.57;;
44139;SDS011;29803;51.048;4.686;2023-03-01T05:24:35;26.15;;;10.10;;
44139;SDS011;29803;51.048;4.686;2023-03-01T05:27:06;22.15;;;10.30;;
44139;SDS011;29803;51.048;4.686;2023-03-01T05:29:36;19.45;;;9.30;;
44139;SDS011;29803;51.048;4.686;2023-03-01T05:32:09;23.73;;;9.52;;
44139;SDS011;29803;51.048;4.686;2023-03-01T05:34:44;26.17;;;10.43;;
44139;SDS011;29803;51.048;4.686;2023-03-01T05:37:16;20.63;;;10.05;;
44139;SDS011;29803;51.048;4.686;2023-03-01T05:39:46;23.45;;;9.35;;
44139;SDS011;29803;51.048;4.686;2023-03-01T05:42:20;20.15;;;9.05;;
44139;SDS011;29803;51.048;4.686;2023-03-01T05:44:51;20.23;;;10.13;;
44139;SDS011;29803;51.048;4.686;2023-03-01T05:47:21;22.42;;;10.27;;
44139;SDS011;29803;51.048;4.686;2023-03-01T05:49:52;25.40;;;10.00;;
44139;SDS011;29803;51.048;4.686;2023-03-01T05:52:22;28.25;;;10.65;;
44139;SDS011;29803;51.048;4.686;2023-03-01T05:54:53;23.02;;;9.55;;
44139;SDS011;29803;51.048;4.686;2023-03-01T05:57:23;25.85;;;10.57;;
44139;SDS011;29803;51.048;4.686;2023-03-01T05:59:53;23.65;;;10.35;;
44139;SDS011;29803;51.048;4.686;2023-03-01T06:02:24;23.60;;;9.32;;
44139;SDS011;29803;51.048;4.686;2023-03-01T06:04:55;26.73;;;10.40;;
44139;SDS011;29803;51.048;4.686;2023-03-01T06:07:25;24.05;;;9.95;;
44139;SDS011;29803;51.048;4.686;2023-03-01T06:09:56;22.17;;;10.07;;
44139;SDS011;29803;51.048;4.686;2023-03-01T06:12:29;26.10;;;9.68;;
44139;SDS011;29803;51.048;4.686;2023-03-01T06:15:01;21.98;;;10.07;;
44139;SDS011;29803;51.048;4.686;2023-03-01T06:17:33;22.52;;;9.05;;
44139;SDS011;29803;51.048;4.686;2023-03-01T06:20:10;24.92;;;9.50;;
44139;SDS011;29803;51.048;4.686;2023-03-01T06:22:44;27.80;;;9.93;;
44139;SDS011;29803;51.048;4.686;2023-03-01T06:25:17;22.33;;;9.55;;
44139;SDS011;29803;51.048;4.686;2023-03-01T06:27:49;23.70;;;9.63;;
44139;SDS011;29803;51.048;4.686;2023-03-01T06:30:22;22.17;;;10.23;;
44139;SDS011;29803;51.048;4.686;2023-03-01T06:32:56;21.30;;;9.48;;
44139;SDS011;29803;51.048;4.686;2023-03-01T06:35:30;26.75;;;10.20;;
44139;SDS011;29803;51.048;4.686;2023-03-01T06:38:02;22.58;;;9.95;;
44139;SDS011;29803;51.048;4.686;2023-03-01T06:40:33;24.08;;;10.50;;
44139;SDS011;29803;51.048;4.686;2023-03-01T06:43:05;42.95;;;11.63;;
44139;SDS011;29803;51.048;4.686;2023-03-01T06:45:37;30.88;;;10.40;;
44139;SDS011;29803;51.048;4.686;2023-03-01T06:48:07;23.73;;;10.50;;
44139;SDS011;29803;51.048;4.686;2023-03-01T06:50:38;23.52;;;9.70;;
44139;SDS011;29803;51.048;4.686;2023-03-01T06:53:08;24.48;;;9.65;;
44139;SDS011;29803;51.048;4.686;2023-03-01T06:55:39;25.80;;;9.88;;
44139;SDS011;29803;51.048;4.686;2023-03-01T06:58:09;21.33;;;10.13;;
44139;SDS011;29803;51.048;4.686;2023-03-01T07:00:41;21.77;;;9.63;;
44139;SDS011;29803;51.048;4.686;2023-03-01T07:03:13;23.88;;;10.00;;
44139;SDS011;29803;51.048;4.686;2023-03-01T07:05:43;26.13;;;10.38;;
44139;SDS011;29803;51.048;4.686;2023-03-01T07:08:14;25.77;;;10.60;;
44139;SDS011;29803;51.048;4.686;2023-03-01T07:10:45;25.98;;;10.48;;
44139;SDS011;29803;51.048;4.686;2023-03-01T07:13:15;28.23;;;9.90;;
44139;SDS011;29803;51.048;4.686;2023-03-01T07:15:46;30.05;;;11.60;;
44139;SDS011;29803;51.048;4.686;2023-03-01T07:18:16;27.85;;;11.63;;
44139;SDS011;29803;51.048;4.686;2023-03-01T07:20:47;32.83;;;12.25;;
44139;SDS011;29803;51.048;4.686;2023-03-01T07:23:17;27.00;;;11.45;;
44139;SDS011;29803;51.048;4.686;2023-03-01T07:28:37;23.75;;;10.25;;
44139;SDS011;29803;51.048;4.686;2023-03-01T07:31:09;22.25;;;9.85;;
44139;SDS011;29803;51.048;4.686;2023-03-01T07:33:39;21.92;;;10.02;;
44139;SDS011;29803;51.048;4.686;2023-03-01T07:36:10;21.67;;;10.15;;
44139;SDS011;29803;51.048;4.686;2023-03-01T07:38:40;18.73;;;10.07;;
44139;SDS011;29803;51.048;4.686;2023-03-01T07:41:11;23.02;;;9.48;;
44139;SDS011;29803;51.048;4.686;2023-03-01T07:43:41;23.83;;;9.85;;
44139;SDS011;29803;51.048;4.686;2023-03-01T07:46:12;22.52;;;9.15;;
44139;SDS011;29803;51.048;4.686;2023-03-01T07:48:43;19.20;;;9.90;;
44139;SDS011;29803;51.048;4.686;2023-03-01T07:51:13;23.33;;;8.95;;
44139;SDS011;29803;51.048;4.686;2023-03-01T07:53:46;21.48;;;9.10;;
44139;SDS011;29803;51.048;4.686;2023-03-01T07:56:18;21.13;;;9.57;;
44139;SDS011;29803;51.048;4.686;2023-03-01T07:58:49;20.27;;;9.25;;
44139;SDS011;29803;51.048;4.686;2023-03-01T08:01:21;22.52;;;9.27;;
44139;SDS011;29803;51.048;4.686;2023-03-01T08:03:52;15.15;;;8.55;;
44139;SDS011;29803;51.048;4.686;2023-03-01T08:06:23;17.95;;;8.85;;
44139;SDS011;29803;51.048;4.686;2023-03-01T08:08:53;14.43;;;8.60;;
44139;SDS011;29803;51.048;4.686;2023-03-01T08:11:25;15.13;;;8.45;;
44139;SDS011;29803;51.048;4.686;2023-03-01T08:13:58;21.92;;;8.70;;
44139;SDS011;29803;51.048;4.686;2023-03-01T08:16:28;23.55;;;9.48;;
44139;SDS011;29803;51.048;4.686;2023-03-01T08:19:03;20.33;;;9.55;;
44139;SDS011;29803;51.048;4.686;2023-03-01T08:21:35;18.80;;;8.65;;
44139;SDS011;29803;51.048;4.686;2023-03-01T08:24:06;17.13;;;9.60;;
44139;SDS011;29803;51.048;4.686;2023-03-01T08:26:37;16.63;;;8.82;;
44139;SDS011;29803;51.048;4.686;2023-03-01T08:29:08;18.98;;;8.55;;
44139;SDS011;29803;51.048;4.686;2023-03-01T08:31:39;13.93;;;8.90;;
44139;SDS011;29803;51.048;4.686;2023-03-01T08:34:11;15.80;;;8.90;;
44139;SDS011;29803;51.048;4.686;2023-03-01T08:36:44;22.33;;;9.60;;
44139;SDS011;29803;51.048;4.686;2023-03-01T08:39:17;13.73;;;8.45;;
44139;SDS011;29803;51.048;4.686;2023-03-01T08:41:49;17.33;;;9.38;;
44139;SDS011;29803;51.048;4.686;2023-03-01T08:44:19;17.35;;;9.23;;
44139;SDS011;29803;51.048;4.686;2023-03-01T08:46:51;18.27;;;8.98;;
44139;SDS011;29803;51.048;4.686;2023-03-01T08:49:23;17.70;;;9.30;;
44139;SDS011;29803;51.048;4.686;2023-03-01T08:51:54;15.85;;;8.90;;
44139;SDS011;29803;51.048;4.686;2023-03-01T08:54:25;19.05;;;9.65;;
44139;SDS011;29803;51.048;4.686;2023-03-01T08:56:55;16.80;;;9.18;;
44139;SDS011;29803;51.048;4.686;2023-03-01T08:59:26;21.13;;;10.38;;
44139;SDS011;29803;51.048;4.686;2023-03-01T09:01:56;17.85;;;9.57;;
44139;SDS011;29803;51.048;4.686;2023-03-01T09:04:27;15.30;;;9.07;;
44139;SDS011;29803;51.048;4.686;2023-03-01T09:06:57;15.82;;;8.98;;
44139;SDS011;29803;51.048;4.686;2023-03-01T09:09:28;17.60;;;9.20;;
44139;SDS011;29803;51.048;4.686;2023-03-01T09:11:58;16.85;;;9.80;;
44139;SDS011;29803;51.048;4.686;2023-03-01T09:14:29;16.92;;;9.40;;
44139;SDS011;29803;51.048;4.686;2023-03-01T09:17:00;19.35;;;9.63;;
44139;SDS011;29803;51.048;4.686;2023-03-01T09:19:32;15.63;;;8.88;;
44139;SDS011;29803;51.048;4.686;2023-03-01T09:22:04;17.88;;;9.15;;
44139;SDS011;29803;51.048;4.686;2023-03-01T09:24:34;19.55;;;9.68;;
44139;SDS011;29803;51.048;4.686;2023-03-01T09:27:05;19.13;;;9.32;;
44139;SDS011;29803;51.048;4.686;2023-03-01T09:29:38;14.45;;;8.40;;
44139;SDS011;29803;51.048;4.686;2023-03-01T09:32:09;17.30;;;8.45;;
44139;SDS011;29803;51.048;4.686;2023-03-01T09:34:40;13.80;;;8.00;;
44139;SDS011;29803;51.048;4.686;2023-03-01T09:37:32;13.98;;;8.68;;
44139;SDS011;29803;51.048;4.686;2023-03-01T09:40:05;18.13;;;8.60;;
44139;SDS011;29803;51.048;4.686;2023-03-01T09:42:37;13.00;;;8.10;;
44139;SDS011;29803;51.048;4.686;2023-03-01T09:45:23;16.63;;;8.10;;
44139;SDS011;29803;51.048;4.686;2023-03-01T09:47:57;15.70;;;8.10;;
44139;SDS011;29803;51.048;4.686;2023-03-01T09:50:32;17.38;;;9.02;;
44139;SDS011;29803;51.048;4.686;2023-03-01T09:53:05;15.10;;;8.07;;
44139;SDS011;29803;51.048;4.686;2023-03-01T10:09:48;17.92;;;8.32;;
44139;SDS011;29803;51.048;4.686;2023-03-01T10:12:20;19.33;;;9.00;;
44139;SDS011;29803;51.048;4.686;2023-03-01T10:15:11;13.85;;;8.63;;
44139;SDS011;29803;51.048;4.686;2023-03-01T10:18:02;25.77;;;9.32;;
44139;SDS011;29803;51.048;4.686;2023-03-01T10:20:43;18.50;;;8.85;;
44139;SDS011;29803;51.048;4.686;2023-03-01T10:23:22;15.52;;;9.07;;
44139;SDS011;29803;51.048;4.686;2023-03-01T10:29:01;18.85;;;9.35;;
44139;SDS011;29803;51.048;4.686;2023-03-01T10:31:37;17.98;;;9.55;;
44139;SDS011;29803;51.048;4.686;2023-03-01T10:34:12;22.50;;;9.82;;
44139;SDS011;29803;51.048;4.686;2023-03-01T10:36:48;15.73;;;9.25;;
44139;SDS011;29803;51.048;4.686;2023-03-01T10:39:22;15.00;;;9.25;;
44139;SDS011;29803;51.048;4.686;2023-03-01T10:41:55;18.00;;;9.10;;
44139;SDS011;29803;51.048;4.686;2023-03-01T10:47:20;18.98;;;9.00;;
44139;SDS011;29803;51.048;4.686;2023-03-01T10:49:55;17.60;;;8.57;;
44139;SDS011;29803;51.048;4.686;2023-03-01T10:52:42;17.65;;;8.63;;
44139;SDS011;29803;51.048;4.686;2023-03-01T10:58:18;16.63;;;8.98;;
44139;SDS011;29803;51.048;4.686;2023-03-01T11:00:54;16.33;;;8.45;;
44139;SDS011;29803;51.048;4.686;2023-03-01T11:03:28;15.00;;;8.50;;
44139;SDS011;29803;51.048;4.686;2023-03-01T11:06:02;18.38;;;8.73;;
44139;SDS011;29803;51.048;4.686;2023-03-01T11:11:29;19.42;;;8.35;;
44139;SDS011;29803;51.048;4.686;2023-03-01T11:14:03;15.27;;;8.52;;
44139;SDS011;29803;51.048;4.686;2023-03-01T11:16:38;15.93;;;8.45;;
44139;SDS011;29803;51.048;4.686;2023-03-01T11:21:44;17.05;;;8.27;;
44139;SDS011;29803;51.048;4.686;2023-03-01T11:27:25;16.00;;;8.27;;
44139;SDS011;29803;51.048;4.686;2023-03-01T11:32:31;20.27;;;8.55;;
44139;SDS011;29803;51.048;4.686;2023-03-01T11:35:13;21.10;;;8.65;;
44139;SDS011;29803;51.048;4.686;2023-03-01T11:40:30;13.30;;;8.05;;
44139;SDS011;29803;51.048;4.686;2023-03-01T11:46:02;14.70;;;8.20;;
44139;SDS011;29803;51.048;4.686;2023-03-01T11:49:10;15.90;;;8.90;;
44139;SDS011;29803;51.048;4.686;2023-03-01T11:52:06;16.02;;;8.20;;
44139;SDS011;29803;51.048;4.686;2023-03-01T12:00:44;16.25;;;8.48;;
44139;SDS011;29803;51.048;4.686;2023-03-01T12:22:28;21.08;;;8.70;;
44139;SDS011;29803;51.048;4.686;2023-03-01T12:33:42;14.88;;;8.82;;
44139;SDS011;29803;51.048;4.686;2023-03-01T12:50:44;17.48;;;9.45;;
44139;SDS011;29803;51.048;4.686;2023-03-01T12:56:06;16.13;;;8.45;;
44139;SDS011;29803;51.048;4.686;2023-03-01T12:58:46;17.77;;;9.82;;
44139;SDS011;29803;51.048;4.686;2023-03-01T13:04:50;19.38;;;8.80;;
44139;SDS011;29803;51.048;4.686;2023-03-01T13:10:31;15.65;;;8.88;;
44139;SDS011;29803;51.048;4.686;2023-03-01T13:13:12;15.82;;;9.30;;
44139;SDS011;29803;51.048;4.686;2023-03-01T13:15:48;17.45;;;9.48;;
44139;SDS011;29803;51.048;4.686;2023-03-01T13:23:39;20.20;;;9.10;;
44139;SDS011;29803;51.048;4.686;2023-03-01T13:33:47;21.45;;;9.75;;
44139;SDS011;29803;51.048;4.686;2023-03-01T13:39:02;25.42;;;9.45;;
44139;SDS011;29803;51.048;4.686;2023-03-01T13:49:48;15.25;;;9.05;;
44139;SDS011;29803;51.048;4.686;2023-03-01T13:55:32;17.60;;;8.18;;
44139;SDS011;29803;51.048;4.686;2023-03-01T14:01:00;16.42;;;8.55;;
44139;SDS011;29803;51.048;4.686;2023-03-01T14:03:34;17.25;;;8.70;;
44139;SDS011;29803;51.048;4.686;2023-03-01T14:06:13;19.42;;;9.38;;
44139;SDS011;29803;51.048;4.686;2023-03-01T14:08:48;14.38;;;8.60;;
44139;SDS011;29803;51.048;4.686;2023-03-01T14:17:25;17.02;;;9.60;;
44139;SDS011;29803;51.048;4.686;2023-03-01T14:19:58;14.68;;;8.63;;
44139;SDS011;29803;51.048;4.686;2023-03-01T14:22:33;20.52;;;9.25;;
44139;SDS011;29803;51.048;4.686;2023-03-01T14:25:05;19.42;;;9.85;;
44139;SDS011;29803;51.048;4.686;2023-03-01T14:30:57;18.02;;;9.57;;
44139;SDS011;29803;51.048;4.686;2023-03-01T14:33:30;19.92;;;9.60;;
44139;SDS011;29803;51.048;4.686;2023-03-01T14:36:04;17.00;;;9.23;;
44139;SDS011;29803;51.048;4.686;2023-03-01T14:38:39;18.70;;;8.65;;
44139;SDS011;29803;51.048;4.686;2023-03-01T14:41:14;21.73;;;9.18;;
44139;SDS011;29803;51.048;4.686;2023-03-01T14:43:47;17.58;;;8.60;;
44139;SDS011;29803;51.048;4.686;2023-03-01T14:46:23;14.57;;;8.70;;
44139;SDS011;29803;51.048;4.686;2023-03-01T14:51:53;14.43;;;8.68;;
44139;SDS011;29803;51.048;4.686;2023-03-01T14:54:35;15.38;;;8.45;;
44139;SDS011;29803;51.048;4.686;2023-03-01T14:57:12;17.08;;;8.50;;
44139;SDS011;29803;51.048;4.686;2023-03-01T14:59:45;17.17;;;8.65;;
44139;SDS011;29803;51.048;4.686;2023-03-01T15:02:18;19.92;;;9.73;;
44139;SDS011;29803;51.048;4.686;2023-03-01T15:04:52;23.23;;;8.57;;
44139;SDS011;29803;51.048;4.686;2023-03-01T15:09:59;16.77;;;8.38;;
44139;SDS011;29803;51.048;4.686;2023-03-01T15:12:34;18.55;;;8.48;;
44139;SDS011;29803;51.048;4.686;2023-03-01T15:17:55;15.38;;;8.18;;
44139;SDS011;29803;51.048;4.686;2023-03-01T15:20:28;13.45;;;8.10;;
44139;SDS011;29803;51.048;4.686;2023-03-01T15:23:00;18.20;;;8.20;;
44139;SDS011;29803;51.048;4.686;2023-03-01T15:25:32;13.98;;;7.40;;
44139;SDS011;29803;51.048;4.686;2023-03-01T15:28:03;14.95;;;7.82;;
44139;SDS011;29803;51.048;4.686;2023-03-01T15:30:34;14.05;;;7.68;;
44139;SDS011;29803;51.048;4.686;2023-03-01T15:35:50;11.25;;;6.82;;
44139;SDS011;29803;51.048;4.686;2023-03-01T15:41:27;14.90;;;6.90;;
44139;SDS011;29803;51.048;4.686;2023-03-01T15:44:14;20.15;;;7.80;;
44139;SDS011;29803;51.048;4.686;2023-03-01T15:46:46;13.63;;;6.75;;
44139;SDS011;29803;51.048;4.686;2023-03-01T15:49:23;14.40;;;7.45;;
44139;SDS011;29803;51.048;4.686;2023-03-01T15:52:05;13.55;;;7.40;;
44139;SDS011;29803;51.048;4.686;2023-03-01T15:54:42;12.88;;;5.93;;
44139;SDS011;29803;51.048;4.686;2023-03-01T15:57:13;15.57;;;6.38;;
44139;SDS011;29803;51.048;4.686;2023-03-01T15:59:45;12.48;;;6.68;;
44139;SDS011;29803;51.048;4.686;2023-03-01T16:02:15;12.40;;;6.90;;
44139;SDS011;29803;51.048;4.686;2023-03-01T16:04:46;13.82;;;7.20;;
44139;SDS011;29803;51.048;4.686;2023-03-01T16:07:18;15.07;;;7.22;;
44139;SDS011;29803;51.048;4.686;2023-03-01T16:09:49;15.35;;;7.07;;
44139;SDS011;29803;51.048;4.686;2023-03-01T16:12:20;15.55;;;7.43;;
44139;SDS011;29803;51.048;4.686;2023-03-01T16:14:51;12.20;;;7.13;;
44139;SDS011;29803;51.048;4.686;2023-03-01T16:17:23;17.52;;;7.05;;
44139;SDS011;29803;51.048;4.686;2023-03-01T16:19:55;15.73;;;6.70;;
44139;SDS011;29803;51.048;4.686;2023-03-01T16:22:25;12.05;;;7.30;;
44139;SDS011;29803;51.048;4.686;2023-03-01T16:24:57;16.27;;;7.13;;
44139;SDS011;29803;51.048;4.686;2023-03-01T16:27:27;14.00;;;6.57;;
44139;SDS011;29803;51.048;4.686;2023-03-01T16:29:58;13.77;;;6.93;;
44139;SDS011;29803;51.048;4.686;2023-03-01T16:32:28;14.18;;;6.20;;
44139;SDS011;29803;51.048;4.686;2023-03-01T16:34:59;14.88;;;6.82;;
44139;SDS011;29803;51.048;4.686;2023-03-01T16:37:31;17.17;;;6.22;;
44139;SDS011;29803;51.048;4.686;2023-03-01T16:40:03;12.23;;;6.75;;
44139;SDS011;29803;51.048;4.686;2023-03-01T16:42:35;15.52;;;7.18;;
44139;SDS011;29803;51.048;4.686;2023-03-01T16:45:05;14.15;;;6.45;;
44139;SDS011;29803;51.048;4.686;2023-03-01T16:47:37;15.43;;;6.85;;
44139;SDS011;29803;51.048;4.686;2023-03-01T16:50:09;14.45;;;6.72;;
44139;SDS011;29803;51.048;4.686;2023-03-01T16:52:40;16.48;;;6.70;;
44139;SDS011;29803;51.048;4.686;2023-03-01T16:55:10;18.75;;;7.47;;
44139;SDS011;29803;51.048;4.686;2023-03-01T16:57:41;13.57;;;7.45;;
44139;SDS011;29803;51.048;4.686;2023-03-01T17:00:12;16.25;;;7.10;;
44139;SDS011;29803;51.048;4.686;2023-03-01T17:02:43;16.40;;;6.90;;
44139;SDS011;29803;51.048;4.686;2023-03-01T17:05:13;12.93;;;6.43;;
44139;SDS011;29803;51.048;4.686;2023-03-01T17:07:44;14.35;;;7.18;;
44139;SDS011;29803;51.048;4.686;2023-03-01T17:10:15;16.20;;;7.25;;
44139;SDS011;29803;51.048;4.686;2023-03-01T17:12:47;16.40;;;7.38;;
44139;SDS011;29803;51.048;4.686;2023-03-01T17:15:19;15.20;;;7.45;;
44139;SDS011;29803;51.048;4.686;2023-03-01T17:17:49;20.27;;;8.80;;
44139;SDS011;29803;51.048;4.686;2023-03-01T17:20:21;15.25;;;7.45;;
44139;SDS011;29803;51.048;4.686;2023-03-01T17:22:51;21.13;;;8.10;;
44139;SDS011;29803;51.048;4.686;2023-03-01T17:25:22;16.80;;;7.70;;
44139;SDS011;29803;51.048;4.686;2023-03-01T17:27:52;15.63;;;7.82;;
44139;SDS011;29803;51.048;4.686;2023-03-01T17:30:23;19.88;;;8.55;;
44139;SDS011;29803;51.048;4.686;2023-03-01T17:32:53;20.15;;;9.55;;
44139;SDS011;29803;51.048;4.686;2023-03-01T17:35:25;21.58;;;9.13;;
44139;SDS011;29803;51.048;4.686;2023-03-01T17:37:55;18.13;;;9.43;;
44139;SDS011;29803;51.048;4.686;2023-03-01T17:40:26;15.05;;;8.18;;
44139;SDS011;29803;51.048;4.686;2023-03-01T17:42:57;16.58;;;7.70;;
44139;SDS011;29803;51.048;4.686;2023-03-01T17:45:28;19.05;;;8.00;;
44139;SDS011;29803;51.048;4.686;2023-03-01T17:47:59;23.35;;;8.95;;
44139;SDS011;29803;51.048;4.686;2023-03-01T17:50:29;24.52;;;8.82;;
44139;SDS011;29803;51.048;4.686;2023-03-01T17:53:00;15.98;;;8.55;;
44139;SDS011;29803;51.048;4.686;2023-03-01T17:55:30;17.27;;;9.23;;